Terminal Aerodrome Forecast
Issued by NWS Caribou, ME

Home | Current Version | Previous Version | Text Only | Print | Product List | Glossary On
Versions: 1 2 3 4 5 6 7 8 9 10 11 12 13 14 15 16 17 18
493
FTUS41 KCAR 071313 AAC
TAFCAR
TAF AMD
KCAR 071313Z 0713/0812 29010G20KT P6SM -SN BKN030 OVC100
     FM071400 29015G25KT P6SM BKN035
     FM071800 33012G20KT P6SM SCT040
     FM080000 36005KT P6SM SKC=

USA.gov is the U.S. government's official web portal to all federal, state and local government web resources and services.